Terminal Aerodrome Forecast
Issued by NWS Detroit/Pontiac, MI

Home | Current Version | Previous Version | Text Only | Print | Product List | Glossary On
Versions: 1 2 3 4 5 6 7 8 9 10 11 12 13 14 15 16 17 18 19 20
000
FTUS43 KDTX 031738
TAFFNT
TAF
KFNT 031738Z 0318/0418 21005KT 5SM SHRA BKN050 BKN120
      TEMPO 0318/0321 1SM TSRA BKN035CB BKN050
     FM040100 VRB03KT P6SM SCT045 BKN100
     FM040400 VRB03KT 4SM BR SCT100
     FM040700 00000KT 3/4SM BR SCT100
     FM041300 23003KT 6SM BR SCT250
     FM041600 23005KT P6SM BKN035=

USA.gov is the U.S. government's official web portal to all federal, state and local government web resources and services.